sensor_id;sensor_type;location;lat;lon;timestamp;P1;durP1;ratioP1;P2;durP2;ratioP2
48092;SDS011;33873;47.442;18.902;2023-08-24T00:02:19;9.07;;;5.95;;
48092;SDS011;33873;47.442;18.902;2023-08-24T00:04:47;8.35;;;4.75;;
48092;SDS011;33873;47.442;18.902;2023-08-24T00:07:14;11.18;;;6.40;;
48092;SDS011;33873;47.442;18.902;2023-08-24T00:09:42;10.27;;;7.95;;
48092;SDS011;33873;47.442;18.902;2023-08-24T00:12:10;10.35;;;5.70;;
48092;SDS011;33873;47.442;18.902;2023-08-24T00:14:38;13.98;;;6.97;;
48092;SDS011;33873;47.442;18.902;2023-08-24T00:17:05;11.82;;;5.45;;
48092;SDS011;33873;47.442;18.902;2023-08-24T00:19:33;9.00;;;5.60;;
48092;SDS011;33873;47.442;18.902;2023-08-24T00:22:01;8.70;;;4.85;;
48092;SDS011;33873;47.442;18.902;2023-08-24T00:24:28;8.82;;;5.40;;
48092;SDS011;33873;47.442;18.902;2023-08-24T00:26:56;9.50;;;6.37;;
48092;SDS011;33873;47.442;18.902;2023-08-24T00:29:24;9.32;;;5.50;;
48092;SDS011;33873;47.442;18.902;2023-08-24T00:31:52;10.93;;;5.35;;
48092;SDS011;33873;47.442;18.902;2023-08-24T00:34:19;10.77;;;5.85;;
48092;SDS011;33873;47.442;18.902;2023-08-24T00:36:47;10.80;;;5.65;;
48092;SDS011;33873;47.442;18.902;2023-08-24T00:39:15;11.30;;;6.32;;
48092;SDS011;33873;47.442;18.902;2023-08-24T00:41:44;13.68;;;5.22;;
48092;SDS011;33873;47.442;18.902;2023-08-24T00:44:12;8.48;;;5.28;;
48092;SDS011;33873;47.442;18.902;2023-08-24T00:46:39;9.98;;;6.40;;
48092;SDS011;33873;47.442;18.902;2023-08-24T00:49:08;8.68;;;5.50;;
48092;SDS011;33873;47.442;18.902;2023-08-24T00:51:36;10.30;;;5.70;;
48092;SDS011;33873;47.442;18.902;2023-08-24T00:54:04;13.02;;;5.12;;
48092;SDS011;33873;47.442;18.902;2023-08-24T00:56:32;9.35;;;5.30;;
48092;SDS011;33873;47.442;18.902;2023-08-24T00:58:59;13.40;;;6.93;;
48092;SDS011;33873;47.442;18.902;2023-08-24T01:01:27;11.90;;;6.55;;
48092;SDS011;33873;47.442;18.902;2023-08-24T01:03:55;11.32;;;6.15;;
48092;SDS011;33873;47.442;18.902;2023-08-24T01:06:23;21.35;;;6.00;;
48092;SDS011;33873;47.442;18.902;2023-08-24T01:08:50;9.00;;;6.03;;
48092;SDS011;33873;47.442;18.902;2023-08-24T01:14:29;11.00;;;5.53;;
48092;SDS011;33873;47.442;18.902;2023-08-24T01:17:02;9.27;;;5.32;;
48092;SDS011;33873;47.442;18.902;2023-08-24T01:19:39;9.70;;;5.57;;
48092;SDS011;33873;47.442;18.902;2023-08-24T01:25:16;11.60;;;5.90;;
48092;SDS011;33873;47.442;18.902;2023-08-24T01:28:05;8.43;;;5.03;;
48092;SDS011;33873;47.442;18.902;2023-08-24T01:30:33;8.75;;;5.57;;
48092;SDS011;33873;47.442;18.902;2023-08-24T01:33:04;9.57;;;5.40;;
48092;SDS011;33873;47.442;18.902;2023-08-24T01:35:32;8.75;;;5.60;;
48092;SDS011;33873;47.442;18.902;2023-08-24T01:38:00;8.68;;;5.15;;
48092;SDS011;33873;47.442;18.902;2023-08-24T01:43:13;7.72;;;5.35;;
48092;SDS011;33873;47.442;18.902;2023-08-24T01:45:46;7.47;;;4.45;;
48092;SDS011;33873;47.442;18.902;2023-08-24T01:48:14;12.45;;;6.05;;
48092;SDS011;33873;47.442;18.902;2023-08-24T01:50:42;8.93;;;6.07;;
48092;SDS011;33873;47.442;18.902;2023-08-24T01:53:10;9.50;;;7.10;;
48092;SDS011;33873;47.442;18.902;2023-08-24T01:55:39;8.23;;;6.37;;
48092;SDS011;33873;47.442;18.902;2023-08-24T01:58:07;12.55;;;7.65;;
48092;SDS011;33873;47.442;18.902;2023-08-24T02:00:35;8.25;;;5.45;;
48092;SDS011;33873;47.442;18.902;2023-08-24T02:03:03;7.95;;;5.00;;
48092;SDS011;33873;47.442;18.902;2023-08-24T02:05:31;8.63;;;5.82;;
48092;SDS011;33873;47.442;18.902;2023-08-24T02:07:59;8.65;;;5.35;;
48092;SDS011;33873;47.442;18.902;2023-08-24T02:10:27;15.48;;;5.60;;
48092;SDS011;33873;47.442;18.902;2023-08-24T02:12:54;9.90;;;4.53;;
48092;SDS011;33873;47.442;18.902;2023-08-24T02:15:22;10.65;;;7.93;;
48092;SDS011;33873;47.442;18.902;2023-08-24T02:17:50;10.30;;;4.82;;
48092;SDS011;33873;47.442;18.902;2023-08-24T02:20:19;8.18;;;5.12;;
48092;SDS011;33873;47.442;18.902;2023-08-24T02:22:46;13.80;;;5.15;;
48092;SDS011;33873;47.442;18.902;2023-08-24T02:25:14;8.93;;;5.05;;
48092;SDS011;33873;47.442;18.902;2023-08-24T02:27:41;8.50;;;4.68;;
48092;SDS011;33873;47.442;18.902;2023-08-24T02:30:09;8.18;;;5.28;;
48092;SDS011;33873;47.442;18.902;2023-08-24T02:32:37;7.87;;;4.87;;
48092;SDS011;33873;47.442;18.902;2023-08-24T02:35:05;8.27;;;4.65;;
48092;SDS011;33873;47.442;18.902;2023-08-24T02:37:34;9.60;;;5.35;;
48092;SDS011;33873;47.442;18.902;2023-08-24T02:40:02;11.73;;;6.43;;
48092;SDS011;33873;47.442;18.902;2023-08-24T02:42:30;10.95;;;5.80;;
48092;SDS011;33873;47.442;18.902;2023-08-24T02:44:59;11.45;;;5.93;;
48092;SDS011;33873;47.442;18.902;2023-08-24T02:47:26;8.38;;;5.30;;
48092;SDS011;33873;47.442;18.902;2023-08-24T02:49:54;8.10;;;5.53;;
48092;SDS011;33873;47.442;18.902;2023-08-24T02:52:22;8.43;;;5.20;;
48092;SDS011;33873;47.442;18.902;2023-08-24T02:54:49;8.73;;;5.70;;
48092;SDS011;33873;47.442;18.902;2023-08-24T02:57:17;7.35;;;4.78;;
48092;SDS011;33873;47.442;18.902;2023-08-24T02:59:45;8.38;;;5.60;;
48092;SDS011;33873;47.442;18.902;2023-08-24T03:02:12;8.48;;;6.25;;
48092;SDS011;33873;47.442;18.902;2023-08-24T03:04:40;11.15;;;6.22;;
48092;SDS011;33873;47.442;18.902;2023-08-24T03:07:08;10.38;;;7.57;;
48092;SDS011;33873;47.442;18.902;2023-08-24T03:09:37;8.85;;;5.68;;
48092;SDS011;33873;47.442;18.902;2023-08-24T03:12:05;10.38;;;6.12;;
48092;SDS011;33873;47.442;18.902;2023-08-24T03:14:33;10.20;;;5.75;;
48092;SDS011;33873;47.442;18.902;2023-08-24T03:17:01;11.68;;;6.07;;
48092;SDS011;33873;47.442;18.902;2023-08-24T03:19:30;9.98;;;6.05;;
48092;SDS011;33873;47.442;18.902;2023-08-24T03:21:57;10.52;;;6.43;;
48092;SDS011;33873;47.442;18.902;2023-08-24T03:24:25;8.60;;;4.97;;
48092;SDS011;33873;47.442;18.902;2023-08-24T03:26:53;12.93;;;5.43;;
48092;SDS011;33873;47.442;18.902;2023-08-24T03:29:21;7.43;;;5.25;;
48092;SDS011;33873;47.442;18.902;2023-08-24T03:31:48;8.48;;;5.05;;
48092;SDS011;33873;47.442;18.902;2023-08-24T03:34:16;8.75;;;5.35;;
48092;SDS011;33873;47.442;18.902;2023-08-24T03:36:44;10.27;;;5.40;;
48092;SDS011;33873;47.442;18.902;2023-08-24T03:39:12;10.02;;;5.15;;
48092;SDS011;33873;47.442;18.902;2023-08-24T03:41:39;15.40;;;6.40;;
48092;SDS011;33873;47.442;18.902;2023-08-24T03:44:07;8.38;;;4.82;;
48092;SDS011;33873;47.442;18.902;2023-08-24T03:46:35;8.93;;;4.95;;
48092;SDS011;33873;47.442;18.902;2023-08-24T03:49:02;9.00;;;4.90;;
48092;SDS011;33873;47.442;18.902;2023-08-24T03:51:30;10.63;;;6.72;;
48092;SDS011;33873;47.442;18.902;2023-08-24T03:53:58;9.10;;;4.78;;
48092;SDS011;33873;47.442;18.902;2023-08-24T03:56:26;9.98;;;5.32;;
48092;SDS011;33873;47.442;18.902;2023-08-24T03:58:53;8.52;;;4.60;;
48092;SDS011;33873;47.442;18.902;2023-08-24T04:01:22;9.32;;;5.90;;
48092;SDS011;33873;47.442;18.902;2023-08-24T04:03:50;11.00;;;7.12;;
48092;SDS011;33873;47.442;18.902;2023-08-24T04:06:18;9.98;;;6.03;;
48092;SDS011;33873;47.442;18.902;2023-08-24T04:08:48;11.68;;;5.90;;
48092;SDS011;33873;47.442;18.902;2023-08-24T04:11:16;12.35;;;5.90;;
48092;SDS011;33873;47.442;18.902;2023-08-24T04:13:46;11.52;;;6.40;;
48092;SDS011;33873;47.442;18.902;2023-08-24T04:16:13;8.40;;;5.32;;
48092;SDS011;33873;47.442;18.902;2023-08-24T04:18:41;8.55;;;5.18;;
48092;SDS011;33873;47.442;18.902;2023-08-24T04:21:09;8.73;;;4.85;;
48092;SDS011;33873;47.442;18.902;2023-08-24T04:23:37;7.78;;;4.75;;
48092;SDS011;33873;47.442;18.902;2023-08-24T04:26:05;8.55;;;4.93;;
48092;SDS011;33873;47.442;18.902;2023-08-24T04:28:34;9.98;;;5.62;;
48092;SDS011;33873;47.442;18.902;2023-08-24T04:31:01;8.48;;;5.95;;
48092;SDS011;33873;47.442;18.902;2023-08-24T04:33:29;10.55;;;6.47;;
48092;SDS011;33873;47.442;18.902;2023-08-24T04:35:58;9.60;;;5.97;;
48092;SDS011;33873;47.442;18.902;2023-08-24T04:38:25;9.13;;;6.03;;
48092;SDS011;33873;47.442;18.902;2023-08-24T04:40:54;9.70;;;6.25;;
48092;SDS011;33873;47.442;18.902;2023-08-24T04:43:23;9.35;;;6.12;;
48092;SDS011;33873;47.442;18.902;2023-08-24T04:45:52;10.13;;;6.72;;
48092;SDS011;33873;47.442;18.902;2023-08-24T04:48:21;10.60;;;5.57;;
48092;SDS011;33873;47.442;18.902;2023-08-24T04:50:50;9.00;;;5.30;;
48092;SDS011;33873;47.442;18.902;2023-08-24T04:53:18;30.50;;;6.43;;
48092;SDS011;33873;47.442;18.902;2023-08-24T04:55:47;9.77;;;4.57;;
48092;SDS011;33873;47.442;18.902;2023-08-24T04:58:14;8.95;;;5.68;;
48092;SDS011;33873;47.442;18.902;2023-08-24T05:00:42;8.20;;;5.43;;
48092;SDS011;33873;47.442;18.902;2023-08-24T05:03:10;8.25;;;5.25;;
48092;SDS011;33873;47.442;18.902;2023-08-24T05:05:38;10.93;;;5.43;;
48092;SDS011;33873;47.442;18.902;2023-08-24T05:08:05;8.60;;;5.60;;
48092;SDS011;33873;47.442;18.902;2023-08-24T05:10:35;8.30;;;4.87;;
48092;SDS011;33873;47.442;18.902;2023-08-24T05:13:03;10.02;;;5.30;;
48092;SDS011;33873;47.442;18.902;2023-08-24T05:15:30;10.73;;;6.57;;
48092;SDS011;33873;47.442;18.902;2023-08-24T05:17:58;8.68;;;5.22;;
48092;SDS011;33873;47.442;18.902;2023-08-24T05:20:27;13.60;;;7.53;;
48092;SDS011;33873;47.442;18.902;2023-08-24T05:22:55;8.45;;;5.22;;
48092;SDS011;33873;47.442;18.902;2023-08-24T05:25:23;11.55;;;6.70;;
48092;SDS011;33873;47.442;18.902;2023-08-24T05:27:51;16.42;;;6.85;;
48092;SDS011;33873;47.442;18.902;2023-08-24T05:30:19;11.75;;;7.07;;
48092;SDS011;33873;47.442;18.902;2023-08-24T05:32:47;14.68;;;6.30;;
48092;SDS011;33873;47.442;18.902;2023-08-24T05:35:15;8.63;;;5.65;;
48092;SDS011;33873;47.442;18.902;2023-08-24T05:37:42;8.85;;;5.12;;
48092;SDS011;33873;47.442;18.902;2023-08-24T05:40:10;9.20;;;5.80;;
48092;SDS011;33873;47.442;18.902;2023-08-24T05:42:38;11.52;;;7.25;;
48092;SDS011;33873;47.442;18.902;2023-08-24T05:45:06;10.93;;;6.65;;
48092;SDS011;33873;47.442;18.902;2023-08-24T05:47:34;12.15;;;6.87;;
48092;SDS011;33873;47.442;18.902;2023-08-24T05:50:01;11.35;;;8.10;;
48092;SDS011;33873;47.442;18.902;2023-08-24T05:52:29;12.27;;;7.20;;
48092;SDS011;33873;47.442;18.902;2023-08-24T05:54:57;12.55;;;6.68;;
48092;SDS011;33873;47.442;18.902;2023-08-24T05:57:25;10.18;;;7.32;;
48092;SDS011;33873;47.442;18.902;2023-08-24T05:59:52;9.93;;;7.78;;
48092;SDS011;33873;47.442;18.902;2023-08-24T06:02:20;12.18;;;7.28;;
48092;SDS011;33873;47.442;18.902;2023-08-24T06:04:48;10.48;;;7.70;;
48092;SDS011;33873;47.442;18.902;2023-08-24T06:07:17;9.45;;;6.40;;
48092;SDS011;33873;47.442;18.902;2023-08-24T06:09:45;11.00;;;7.37;;
48092;SDS011;33873;47.442;18.902;2023-08-24T06:12:13;15.85;;;8.52;;
48092;SDS011;33873;47.442;18.902;2023-08-24T06:14:40;10.88;;;6.45;;
48092;SDS011;33873;47.442;18.902;2023-08-24T06:17:08;9.90;;;5.55;;
48092;SDS011;33873;47.442;18.902;2023-08-24T06:19:36;9.02;;;5.68;;
48092;SDS011;33873;47.442;18.902;2023-08-24T06:22:04;8.88;;;6.05;;
48092;SDS011;33873;47.442;18.902;2023-08-24T06:24:31;9.80;;;7.45;;
48092;SDS011;33873;47.442;18.902;2023-08-24T06:26:59;8.63;;;6.45;;
48092;SDS011;33873;47.442;18.902;2023-08-24T06:29:28;8.77;;;6.15;;
48092;SDS011;33873;47.442;18.902;2023-08-24T06:31:56;9.13;;;5.75;;
48092;SDS011;33873;47.442;18.902;2023-08-24T06:34:24;11.18;;;6.15;;
48092;SDS011;33873;47.442;18.902;2023-08-24T06:36:52;9.38;;;5.93;;
48092;SDS011;33873;47.442;18.902;2023-08-24T06:39:20;9.43;;;6.57;;
48092;SDS011;33873;47.442;18.902;2023-08-24T06:41:48;9.73;;;5.97;;
48092;SDS011;33873;47.442;18.902;2023-08-24T06:44:18;8.52;;;6.15;;
48092;SDS011;33873;47.442;18.902;2023-08-24T06:46:46;9.93;;;6.95;;
48092;SDS011;33873;47.442;18.902;2023-08-24T06:49:14;10.25;;;6.50;;
48092;SDS011;33873;47.442;18.902;2023-08-24T06:51:41;12.65;;;8.07;;
48092;SDS011;33873;47.442;18.902;2023-08-24T06:54:09;9.32;;;6.45;;
48092;SDS011;33873;47.442;18.902;2023-08-24T06:56:37;9.35;;;7.55;;
48092;SDS011;33873;47.442;18.902;2023-08-24T06:59:04;9.30;;;6.35;;
48092;SDS011;33873;47.442;18.902;2023-08-24T07:01:32;11.12;;;6.53;;
48092;SDS011;33873;47.442;18.902;2023-08-24T07:04:00;7.80;;;5.53;;
48092;SDS011;33873;47.442;18.902;2023-08-24T07:06:28;8.38;;;5.80;;
48092;SDS011;33873;47.442;18.902;2023-08-24T07:08:56;9.25;;;6.00;;
48092;SDS011;33873;47.442;18.902;2023-08-24T07:11:23;9.82;;;5.80;;
48092;SDS011;33873;47.442;18.902;2023-08-24T07:13:51;10.45;;;5.60;;
48092;SDS011;33873;47.442;18.902;2023-08-24T07:16:20;8.80;;;5.37;;
48092;SDS011;33873;47.442;18.902;2023-08-24T07:18:48;9.43;;;5.05;;
48092;SDS011;33873;47.442;18.902;2023-08-24T07:21:16;8.88;;;5.12;;
48092;SDS011;33873;47.442;18.902;2023-08-24T07:23:44;8.38;;;6.50;;
48092;SDS011;33873;47.442;18.902;2023-08-24T07:26:12;9.30;;;6.07;;
48092;SDS011;33873;47.442;18.902;2023-08-24T07:28:40;9.68;;;6.70;;
48092;SDS011;33873;47.442;18.902;2023-08-24T07:31:08;10.40;;;5.68;;
48092;SDS011;33873;47.442;18.902;2023-08-24T07:33:38;8.65;;;5.95;;
48092;SDS011;33873;47.442;18.902;2023-08-24T07:36:06;8.43;;;6.50;;
48092;SDS011;33873;47.442;18.902;2023-08-24T07:38:33;7.72;;;4.95;;
48092;SDS011;33873;47.442;18.902;2023-08-24T07:41:02;10.63;;;5.82;;
48092;SDS011;33873;47.442;18.902;2023-08-24T07:43:30;9.27;;;6.90;;
48092;SDS011;33873;47.442;18.902;2023-08-24T07:45:58;15.23;;;6.15;;
48092;SDS011;33873;47.442;18.902;2023-08-24T07:48:26;10.25;;;5.62;;
48092;SDS011;33873;47.442;18.902;2023-08-24T07:50:54;9.40;;;6.05;;
48092;SDS011;33873;47.442;18.902;2023-08-24T07:53:22;10.07;;;6.60;;
48092;SDS011;33873;47.442;18.902;2023-08-24T07:55:49;8.52;;;6.30;;
48092;SDS011;33873;47.442;18.902;2023-08-24T07:58:17;11.52;;;6.97;;
48092;SDS011;33873;47.442;18.902;2023-08-24T08:00:44;11.12;;;6.82;;
48092;SDS011;33873;47.442;18.902;2023-08-24T08:03:12;10.57;;;7.32;;
48092;SDS011;33873;47.442;18.902;2023-08-24T08:05:40;9.77;;;6.07;;
48092;SDS011;33873;47.442;18.902;2023-08-24T08:08:08;8.32;;;5.97;;
48092;SDS011;33873;47.442;18.902;2023-08-24T08:10:36;11.50;;;7.65;;
48092;SDS011;33873;47.442;18.902;2023-08-24T08:13:03;11.35;;;6.20;;
48092;SDS011;33873;47.442;18.902;2023-08-24T08:15:31;12.57;;;6.50;;
48092;SDS011;33873;47.442;18.902;2023-08-24T08:17:59;11.48;;;6.62;;
48092;SDS011;33873;47.442;18.902;2023-08-24T08:20:26;10.77;;;6.75;;
48092;SDS011;33873;47.442;18.902;2023-08-24T08:22:54;10.63;;;6.87;;
48092;SDS011;33873;47.442;18.902;2023-08-24T08:25:22;9.20;;;6.22;;
48092;SDS011;33873;47.442;18.902;2023-08-24T08:27:50;10.40;;;5.85;;
48092;SDS011;33873;47.442;18.902;2023-08-24T08:30:18;8.02;;;6.07;;
48092;SDS011;33873;47.442;18.902;2023-08-24T08:32:47;10.40;;;6.78;;
48092;SDS011;33873;47.442;18.902;2023-08-24T08:35:16;8.23;;;5.70;;
48092;SDS011;33873;47.442;18.902;2023-08-24T08:37:45;7.07;;;5.37;;
48092;SDS011;33873;47.442;18.902;2023-08-24T08:40:13;11.35;;;6.03;;
48092;SDS011;33873;47.442;18.902;2023-08-24T08:42:41;7.25;;;5.50;;
48092;SDS011;33873;47.442;18.902;2023-08-24T08:45:09;8.20;;;5.12;;
48092;SDS011;33873;47.442;18.902;2023-08-24T08:47:38;8.75;;;5.97;;
48092;SDS011;33873;47.442;18.902;2023-08-24T08:50:05;8.48;;;5.25;;
48092;SDS011;33873;47.442;18.902;2023-08-24T08:52:33;8.45;;;5.50;;
48092;SDS011;33873;47.442;18.902;2023-08-24T08:55:01;8.52;;;4.43;;
48092;SDS011;33873;47.442;18.902;2023-08-24T08:57:33;10.93;;;6.43;;
48092;SDS011;33873;47.442;18.902;2023-08-24T09:00:01;9.40;;;5.75;;
48092;SDS011;33873;47.442;18.902;2023-08-24T09:02:30;7.93;;;4.50;;
48092;SDS011;33873;47.442;18.902;2023-08-24T09:04:59;9.25;;;5.30;;
48092;SDS011;33873;47.442;18.902;2023-08-24T09:07:27;8.48;;;4.82;;
48092;SDS011;33873;47.442;18.902;2023-08-24T09:09:55;9.00;;;6.00;;
48092;SDS011;33873;47.442;18.902;2023-08-24T09:12:22;8.40;;;5.25;;
48092;SDS011;33873;47.442;18.902;2023-08-24T09:14:50;8.80;;;5.32;;
48092;SDS011;33873;47.442;18.902;2023-08-24T09:17:21;7.95;;;5.53;;
48092;SDS011;33873;47.442;18.902;2023-08-24T09:19:49;8.43;;;5.25;;
48092;SDS011;33873;47.442;18.902;2023-08-24T09:22:19;7.97;;;4.78;;
48092;SDS011;33873;47.442;18.902;2023-08-24T09:24:48;8.35;;;5.55;;
48092;SDS011;33873;47.442;18.902;2023-08-24T09:27:18;7.60;;;4.45;;
48092;SDS011;33873;47.442;18.902;2023-08-24T09:32:27;8.55;;;5.10;;
48092;SDS011;33873;47.442;18.902;2023-08-24T09:34:56;7.03;;;4.93;;
48092;SDS011;33873;47.442;18.902;2023-08-24T09:37:23;8.10;;;4.62;;
48092;SDS011;33873;47.442;18.902;2023-08-24T09:39:55;8.27;;;4.97;;
48092;SDS011;33873;47.442;18.902;2023-08-24T09:42:28;8.02;;;5.45;;
48092;SDS011;33873;47.442;18.902;2023-08-24T09:45:02;6.32;;;4.62;;
48092;SDS011;33873;47.442;18.902;2023-08-24T09:47:32;7.05;;;4.85;;
48092;SDS011;33873;47.442;18.902;2023-08-24T09:50:00;8.75;;;5.12;;
48092;SDS011;33873;47.442;18.902;2023-08-24T09:52:28;7.70;;;4.00;;
48092;SDS011;33873;47.442;18.902;2023-08-24T09:55:01;11.52;;;5.15;;
48092;SDS011;33873;47.442;18.902;2023-08-24T09:57:38;7.82;;;4.62;;
48092;SDS011;33873;47.442;18.902;2023-08-24T10:00:06;7.53;;;4.50;;
48092;SDS011;33873;47.442;18.902;2023-08-24T10:02:44;7.07;;;4.70;;
48092;SDS011;33873;47.442;18.902;2023-08-24T10:05:22;6.35;;;4.37;;
48092;SDS011;33873;47.442;18.902;2023-08-24T10:08:11;7.10;;;3.97;;
48092;SDS011;33873;47.442;18.902;2023-08-24T10:10:39;7.45;;;4.40;;
48092;SDS011;33873;47.442;18.902;2023-08-24T10:13:12;6.40;;;4.03;;
48092;SDS011;33873;47.442;18.902;2023-08-24T10:15:46;8.63;;;4.20;;
48092;SDS011;33873;47.442;18.902;2023-08-24T10:18:15;8.45;;;4.25;;
48092;SDS011;33873;47.442;18.902;2023-08-24T10:20:44;8.05;;;4.22;;
48092;SDS011;33873;47.442;18.902;2023-08-24T10:23:13;7.03;;;4.47;;
48092;SDS011;33873;47.442;18.902;2023-08-24T10:25:43;9.90;;;4.68;;
48092;SDS011;33873;47.442;18.902;2023-08-24T10:28:11;6.82;;;4.90;;
48092;SDS011;33873;47.442;18.902;2023-08-24T10:30:41;9.13;;;4.40;;
48092;SDS011;33873;47.442;18.902;2023-08-24T10:33:12;8.95;;;4.45;;
48092;SDS011;33873;47.442;18.902;2023-08-24T10:35:40;7.90;;;4.37;;
48092;SDS011;33873;47.442;18.902;2023-08-24T10:38:18;7.78;;;4.68;;
48092;SDS011;33873;47.442;18.902;2023-08-24T10:40:50;7.10;;;4.70;;
48092;SDS011;33873;47.442;18.902;2023-08-24T10:43:18;6.95;;;4.40;;
48092;SDS011;33873;47.442;18.902;2023-08-24T10:45:56;8.48;;;4.50;;
48092;SDS011;33873;47.442;18.902;2023-08-24T10:48:29;6.97;;;4.85;;
48092;SDS011;33873;47.442;18.902;2023-08-24T10:51:17;9.27;;;5.10;;
48092;SDS011;33873;47.442;18.902;2023-08-24T10:56:20;7.30;;;4.72;;
48092;SDS011;33873;47.442;18.902;2023-08-24T10:59:08;7.55;;;4.78;;
48092;SDS011;33873;47.442;18.902;2023-08-24T11:01:42;10.38;;;5.30;;
48092;SDS011;33873;47.442;18.902;2023-08-24T11:04:19;9.75;;;4.62;;
48092;SDS011;33873;47.442;18.902;2023-08-24T11:06:53;7.37;;;4.70;;
48092;SDS011;33873;47.442;18.902;2023-08-24T11:09:26;10.48;;;4.47;;
48092;SDS011;33873;47.442;18.902;2023-08-24T11:12:12;7.80;;;4.53;;
48092;SDS011;33873;47.442;18.902;2023-08-24T11:14:52;9.90;;;5.00;;
48092;SDS011;33873;47.442;18.902;2023-08-24T11:17:29;6.35;;;4.72;;
48092;SDS011;33873;47.442;18.902;2023-08-24T11:20:00;9.77;;;5.03;;
48092;SDS011;33873;47.442;18.902;2023-08-24T11:22:31;13.07;;;5.75;;
48092;SDS011;33873;47.442;18.902;2023-08-24T11:24:59;7.25;;;5.10;;
48092;SDS011;33873;47.442;18.902;2023-08-24T11:27:27;22.75;;;6.57;;
48092;SDS011;33873;47.442;18.902;2023-08-24T11:29:59;7.95;;;5.20;;
48092;SDS011;33873;47.442;18.902;2023-08-24T11:32:27;11.35;;;5.25;;
48092;SDS011;33873;47.442;18.902;2023-08-24T11:34:55;9.95;;;5.30;;
48092;SDS011;33873;47.442;18.902;2023-08-24T11:37:23;6.90;;;4.95;;
48092;SDS011;33873;47.442;18.902;2023-08-24T11:39:50;7.18;;;4.72;;
48092;SDS011;33873;47.442;18.902;2023-08-24T11:42:18;8.57;;;5.43;;
48092;SDS011;33873;47.442;18.902;2023-08-24T11:44:48;7.82;;;5.80;;
48092;SDS011;33873;47.442;18.902;2023-08-24T11:47:19;9.95;;;5.72;;
48092;SDS011;33873;47.442;18.902;2023-08-24T11:49:47;7.03;;;5.00;;
48092;SDS011;33873;47.442;18.902;2023-08-24T11:52:14;10.90;;;5.78;;
48092;SDS011;33873;47.442;18.902;2023-08-24T11:54:44;8.60;;;5.03;;
48092;SDS011;33873;47.442;18.902;2023-08-24T11:57:11;8.50;;;4.78;;
48092;SDS011;33873;47.442;18.902;2023-08-24T11:59:39;10.73;;;4.85;;
48092;SDS011;33873;47.442;18.902;2023-08-24T12:02:08;7.12;;;4.53;;
48092;SDS011;33873;47.442;18.902;2023-08-24T12:04:37;8.88;;;5.55;;
48092;SDS011;33873;47.442;18.902;2023-08-24T12:07:13;8.27;;;5.00;;
48092;SDS011;33873;47.442;18.902;2023-08-24T12:09:41;8.10;;;4.90;;
48092;SDS011;33873;47.442;18.902;2023-08-24T12:12:16;7.93;;;4.90;;
48092;SDS011;33873;47.442;18.902;2023-08-24T12:14:45;8.55;;;4.45;;
48092;SDS011;33873;47.442;18.902;2023-08-24T12:17:14;8.13;;;4.60;;
48092;SDS011;33873;47.442;18.902;2023-08-24T12:19:43;8.20;;;4.75;;
48092;SDS011;33873;47.442;18.902;2023-08-24T12:22:13;8.40;;;4.70;;
48092;SDS011;33873;47.442;18.902;2023-08-24T12:24:44;5.57;;;3.45;;
48092;SDS011;33873;47.442;18.902;2023-08-24T12:27:19;9.50;;;4.37;;
48092;SDS011;33873;47.442;18.902;2023-08-24T12:29:49;6.37;;;4.15;;
48092;SDS011;33873;47.442;18.902;2023-08-24T12:32:18;8.48;;;4.78;;
48092;SDS011;33873;47.442;18.902;2023-08-24T12:34:47;8.57;;;4.47;;
48092;SDS011;33873;47.442;18.902;2023-08-24T12:37:15;10.48;;;4.53;;
48092;SDS011;33873;47.442;18.902;2023-08-24T12:39:43;7.82;;;3.90;;
48092;SDS011;33873;47.442;18.902;2023-08-24T12:42:10;9.52;;;4.47;;
48092;SDS011;33873;47.442;18.902;2023-08-24T12:44:38;6.55;;;4.25;;
48092;SDS011;33873;47.442;18.902;2023-08-24T12:47:06;6.45;;;4.10;;
48092;SDS011;33873;47.442;18.902;2023-08-24T12:49:33;7.75;;;4.07;;
48092;SDS011;33873;47.442;18.902;2023-08-24T12:52:01;6.50;;;4.00;;
48092;SDS011;33873;47.442;18.902;2023-08-24T12:54:29;5.80;;;4.03;;
48092;SDS011;33873;47.442;18.902;2023-08-24T12:56:57;8.27;;;3.95;;
48092;SDS011;33873;47.442;18.902;2023-08-24T12:59:24;7.10;;;4.10;;
48092;SDS011;33873;47.442;18.902;2023-08-24T13:01:52;6.60;;;4.37;;
48092;SDS011;33873;47.442;18.902;2023-08-24T13:04:19;7.78;;;3.92;;
48092;SDS011;33873;47.442;18.902;2023-08-24T13:06:47;16.23;;;4.12;;
48092;SDS011;33873;47.442;18.902;2023-08-24T13:09:15;7.40;;;3.87;;
48092;SDS011;33873;47.442;18.902;2023-08-24T13:11:43;8.23;;;4.20;;
48092;SDS011;33873;47.442;18.902;2023-08-24T13:14:11;8.80;;;4.07;;
48092;SDS011;33873;47.442;18.902;2023-08-24T13:16:39;7.68;;;4.30;;
48092;SDS011;33873;47.442;18.902;2023-08-24T13:19:07;7.82;;;4.03;;
48092;SDS011;33873;47.442;18.902;2023-08-24T13:21:34;6.43;;;3.95;;
48092;SDS011;33873;47.442;18.902;2023-08-24T13:24:02;9.25;;;4.22;;
48092;SDS011;33873;47.442;18.902;2023-08-24T13:26:30;7.10;;;4.40;;
48092;SDS011;33873;47.442;18.902;2023-08-24T13:28:58;7.35;;;3.97;;
48092;SDS011;33873;47.442;18.902;2023-08-24T13:31:26;7.05;;;3.97;;
48092;SDS011;33873;47.442;18.902;2023-08-24T13:33:53;6.93;;;4.37;;
48092;SDS011;33873;47.442;18.902;2023-08-24T13:36:21;7.25;;;4.47;;
48092;SDS011;33873;47.442;18.902;2023-08-24T13:38:49;8.65;;;4.37;;
48092;SDS011;33873;47.442;18.902;2023-08-24T13:41:17;6.95;;;3.75;;
48092;SDS011;33873;47.442;18.902;2023-08-24T13:43:44;7.35;;;4.05;;
48092;SDS011;33873;47.442;18.902;2023-08-24T13:46:12;6.53;;;4.15;;
48092;SDS011;33873;47.442;18.902;2023-08-24T13:48:40;5.37;;;3.30;;
48092;SDS011;33873;47.442;18.902;2023-08-24T13:51:07;6.30;;;3.83;;
48092;SDS011;33873;47.442;18.902;2023-08-24T13:53:36;7.03;;;4.32;;
48092;SDS011;33873;47.442;18.902;2023-08-24T13:56:04;6.95;;;4.30;;
48092;SDS011;33873;47.442;18.902;2023-08-24T13:58:32;8.70;;;4.47;;
48092;SDS011;33873;47.442;18.902;2023-08-24T14:01:00;7.45;;;3.92;;
48092;SDS011;33873;47.442;18.902;2023-08-24T14:03:30;7.28;;;4.30;;
48092;SDS011;33873;47.442;18.902;2023-08-24T14:05:58;8.30;;;4.47;;
48092;SDS011;33873;47.442;18.902;2023-08-24T14:08:26;6.70;;;3.97;;
48092;SDS011;33873;47.442;18.902;2023-08-24T14:10:54;7.18;;;4.15;;
48092;SDS011;33873;47.442;18.902;2023-08-24T14:13:21;8.93;;;3.97;;
48092;SDS011;33873;47.442;18.902;2023-08-24T14:15:51;6.87;;;4.18;;
48092;SDS011;33873;47.442;18.902;2023-08-24T14:18:19;9.25;;;4.47;;
48092;SDS011;33873;47.442;18.902;2023-08-24T14:20:48;9.30;;;4.00;;
48092;SDS011;33873;47.442;18.902;2023-08-24T14:23:15;7.30;;;3.62;;
48092;SDS011;33873;47.442;18.902;2023-08-24T14:25:45;6.80;;;4.15;;
48092;SDS011;33873;47.442;18.902;2023-08-24T14:28:13;5.82;;;3.75;;
48092;SDS011;33873;47.442;18.902;2023-08-24T14:30:41;7.35;;;3.40;;
48092;SDS011;33873;47.442;18.902;2023-08-24T14:33:09;7.45;;;4.18;;
48092;SDS011;33873;47.442;18.902;2023-08-24T14:35:36;13.85;;;4.93;;
48092;SDS011;33873;47.442;18.902;2023-08-24T14:38:04;6.10;;;3.95;;
48092;SDS011;33873;47.442;18.902;2023-08-24T14:40:32;6.87;;;4.10;;
48092;SDS011;33873;47.442;18.902;2023-08-24T14:42:59;6.35;;;3.25;;
48092;SDS011;33873;47.442;18.902;2023-08-24T14:45:27;10.18;;;4.45;;
48092;SDS011;33873;47.442;18.902;2023-08-24T14:47:55;8.65;;;3.62;;
48092;SDS011;33873;47.442;18.902;2023-08-24T14:50:23;8.23;;;4.00;;
48092;SDS011;33873;47.442;18.902;2023-08-24T14:52:51;11.23;;;3.90;;
48092;SDS011;33873;47.442;18.902;2023-08-24T14:55:19;8.63;;;4.20;;